createdAt,value
2023-04-10T00:01:35.571Z,99134.41
2023-04-10T00:04:06.126Z,99132.28
2023-04-10T00:06:34.476Z,99140.31
2023-04-10T00:09:02.556Z,99131.84
2023-04-10T00:11:30.669Z,99127.88
2023-04-10T00:13:58.792Z,99119.16
2023-04-10T00:16:29.371Z,99133.47
2023-04-10T00:18:57.393Z,99132.03
2023-04-10T00:21:27.230Z,99126.75
2023-04-10T00:23:55.475Z,99125.97
2023-04-10T00:26:23.855Z,99115.03
2023-04-10T00:28:51.929Z,99108.81
2023-04-10T00:31:20.216Z,99107.97
2023-04-10T00:33:48.412Z,99114.38
2023-04-10T00:36:17.206Z,99106.78
2023-04-10T00:38:47.523Z,99097.25
2023-04-10T00:41:15.602Z,99105.59
2023-04-10T00:43:43.689Z,99107.72
2023-04-10T00:46:11.966Z,99106.88
2023-04-10T00:48:40.826Z,99093.34
2023-04-10T00:51:12.721Z,99096.97
2023-04-10T00:53:40.909Z,99088.53
2023-04-10T00:56:10.732Z,99094.88
2023-04-10T00:58:39.370Z,99097.22
2023-04-10T01:01:08.490Z,99098.44
2023-04-10T01:03:37.808Z,99098.16
2023-04-10T01:06:09.541Z,99101.31
2023-04-10T01:08:40.238Z,99100.22
2023-04-10T01:11:11.417Z,99106.88
2023-04-10T01:13:44.794Z,99103.53
2023-04-10T01:16:17.206Z,99105.28
2023-04-10T01:18:47.390Z,99111.50
2023-04-10T01:21:16.206Z,99074.81
2023-04-10T01:23:54.627Z,99097.81
2023-04-10T01:26:33.702Z,99100.84
2023-04-10T01:29:05.303Z,99099.91
2023-04-10T01:31:37.341Z,99095.13
2023-04-10T01:34:08.371Z,99101.53
2023-04-10T01:36:38.205Z,99101.44
2023-04-10T01:39:07.824Z,99103.25
2023-04-10T01:41:36.256Z,99102.50
2023-04-10T01:44:07.073Z,99099.28
2023-04-10T01:46:35.632Z,99099.09
2023-04-10T01:49:04.224Z,99088.44
2023-04-10T01:51:33.523Z,99086.06
2023-04-10T01:54:07.027Z,99097.97
2023-04-10T01:56:38.556Z,99103.06
2023-04-10T01:59:08.433Z,99100.28
2023-04-10T02:01:36.575Z,99103.72
2023-04-10T02:04:04.812Z,99106.59
2023-04-10T02:06:38.702Z,99103.53
2023-04-10T02:09:11.519Z,99102.44
2023-04-10T02:11:42.326Z,99096.63
2023-04-10T02:14:12.574Z,99093.81
2023-04-10T02:16:42.046Z,99100.66
2023-04-10T02:19:10.899Z,99057.75
2023-04-10T02:21:40.416Z,99084.00
2023-04-10T02:24:08.894Z,99093.47
2023-04-10T02:26:47.070Z,99089.25
2023-04-10T02:29:16.544Z,99090.03
2023-04-10T02:31:45.130Z,99087.03
2023-04-10T02:34:13.424Z,99083.78
2023-04-10T02:36:41.819Z,99088.72
2023-04-10T02:39:11.892Z,99096.16
2023-04-10T02:41:48.208Z,99101.84
2023-04-10T02:44:18.008Z,99099.59
2023-04-10T02:46:46.616Z,99110.16
2023-04-10T02:49:15.503Z,99103.84
2023-04-10T02:51:43.647Z,99109.53
2023-04-10T02:54:11.699Z,99101.84
2023-04-10T02:56:41.985Z,99091.28
2023-04-10T02:59:10.146Z,99086.16
2023-04-10T03:01:40.662Z,99090.16
2023-04-10T03:04:09.082Z,99058.63
2023-04-10T03:06:40.475Z,99087.63
2023-04-10T03:09:08.627Z,99065.34
2023-04-10T03:11:36.737Z,99086.88
2023-04-10T03:14:05.007Z,99095.16
2023-04-10T03:16:33.311Z,99082.03
2023-04-10T03:19:05.752Z,99079.78
2023-04-10T03:21:33.874Z,99083.03
2023-04-10T03:24:02.662Z,99072.13
2023-04-10T03:26:30.774Z,99066.19
2023-04-10T03:29:01.400Z,99071.44
2023-04-10T03:31:30.019Z,99068.75
2023-04-10T03:34:00.644Z,99068.41
2023-04-10T03:36:30.069Z,99071.75
2023-04-10T03:38:58.150Z,99068.88
2023-04-10T03:41:26.436Z,99064.69
2023-04-10T03:43:55.149Z,99059.44
2023-04-10T03:46:23.712Z,99057.38
2023-04-10T03:48:54.654Z,99057.94
2023-04-10T03:51:24.452Z,99060.47
2023-04-10T03:53:54.207Z,99060.44
2023-04-10T03:56:22.650Z,99041.63
2023-04-10T03:58:50.890Z,99050.47
2023-04-10T04:01:18.998Z,99048.91
2023-04-10T04:04:13.448Z,99044.84
2023-04-10T04:07:02.770Z,99038.72
2023-04-10T04:09:48.867Z,99046.00
2023-04-10T04:12:26.170Z,99034.63
2023-04-10T04:15:07.543Z,99034.63
2023-04-10T04:17:50.293Z,99035.31
2023-04-10T04:20:39.096Z,99029.28
2023-04-10T04:23:17.734Z,99025.13
2023-04-10T04:26:05.948Z,99031.34
2023-04-10T04:28:36.576Z,99031.25
2023-04-10T04:31:32.586Z,99037.31
2023-04-10T04:34:33.343Z,99034.16
2023-04-10T04:37:27.533Z,99035.81
2023-04-10T04:40:27.696Z,99039.47
2023-04-10T04:43:21.928Z,99039.84
2023-04-10T04:46:25.794Z,99042.81
2023-04-10T04:48:53.819Z,99045.84
2023-04-10T04:51:42.104Z,99043.81
2023-04-10T04:54:15.981Z,99045.00
2023-04-10T04:57:01.696Z,99050.59
2023-04-10T04:59:35.268Z,99055.97
2023-04-10T05:02:08.895Z,99062.53
2023-04-10T05:04:58.279Z,99056.00
2023-04-10T05:07:48.048Z,99062.63
2023-04-10T05:10:39.334Z,99061.66
2023-04-10T05:13:10.125Z,99056.72
2023-04-10T05:16:02.453Z,99066.00
2023-04-10T05:19:06.236Z,99055.53
2023-04-10T05:21:55.822Z,99051.69
2023-04-10T05:24:23.804Z,99050.63
2023-04-10T05:27:10.493Z,99046.59
2023-04-10T05:29:57.260Z,99049.59
2023-04-10T05:33:02.064Z,99052.75
2023-04-10T05:36:09.050Z,99047.34
2023-04-10T05:38:54.055Z,99050.41
2023-04-10T05:41:54.439Z,99059.78
2023-04-10T05:44:40.942Z,99063.97
2023-04-10T05:47:30.291Z,99057.47
2023-04-10T05:50:18.420Z,99064.13
2023-04-10T05:53:00.388Z,99070.84
2023-04-10T05:55:44.047Z,99065.94
2023-04-10T05:58:24.575Z,99061.19
2023-04-10T06:01:11.443Z,99071.16
2023-04-10T06:03:49.058Z,99060.69
2023-04-10T06:06:22.338Z,99068.56
2023-04-10T06:08:50.960Z,99070.94
2023-04-10T06:11:18.995Z,99070.13
2023-04-10T06:13:52.307Z,99060.59
2023-04-10T06:16:23.888Z,99065.44
2023-04-10T06:18:52.758Z,99061.03
2023-04-10T06:21:22.402Z,99067.06
2023-04-10T06:23:50.474Z,99071.44
2023-04-10T06:26:34.117Z,99069.16
2023-04-10T06:29:05.329Z,99065.81
2023-04-10T06:31:35.024Z,99066.84
2023-04-10T06:34:05.719Z,99057.06
2023-04-10T06:36:37.105Z,99062.22
2023-04-10T06:39:07.708Z,99057.25
2023-04-10T06:41:35.833Z,99054.53
2023-04-10T06:44:15.816Z,99050.97
2023-04-10T06:46:43.902Z,99049.72
2023-04-10T06:49:12.317Z,99043.13
2023-04-10T06:51:41.682Z,99045.22
2023-04-10T06:54:09.751Z,99044.00
2023-04-10T06:56:37.895Z,99043.44
2023-04-10T06:59:06.362Z,99044.88
2023-04-10T07:01:34.591Z,99037.16
2023-04-10T07:04:02.696Z,99045.06
2023-04-10T07:06:31.293Z,99038.66
2023-04-10T07:09:00.736Z,99045.47
2023-04-10T07:11:28.815Z,99040.28
2023-04-10T07:13:58.518Z,99043.81
2023-04-10T07:16:27.397Z,99043.00
2023-04-10T07:18:57.850Z,99044.22
2023-04-10T07:21:27.214Z,99051.50
2023-04-10T07:23:55.406Z,99045.28
2023-04-10T07:26:27.480Z,99045.91
2023-04-10T07:28:57.859Z,99041.94
2023-04-10T07:31:26.149Z,99038.66
2023-04-10T07:33:54.257Z,99044.16
2023-04-10T07:36:22.310Z,99036.25
2023-04-10T07:38:50.569Z,99038.91
2023-04-10T07:41:18.631Z,99028.16
2023-04-10T07:43:47.994Z,99033.50
2023-04-10T07:46:18.532Z,99040.13
2023-04-10T07:48:47.470Z,99040.28
2023-04-10T07:51:15.456Z,99041.09
2023-04-10T07:53:43.452Z,99039.00
2023-04-10T07:56:16.184Z,99033.50
2023-04-10T07:58:44.394Z,99029.31
2023-04-10T08:01:14.056Z,99035.19
2023-04-10T08:03:42.884Z,99034.19
2023-04-10T08:06:11.475Z,99032.94
2023-04-10T08:08:40.040Z,99022.91
2023-04-10T08:11:08.952Z,99022.72
2023-04-10T08:13:36.942Z,99021.47
2023-04-10T08:16:05.281Z,99011.72
2023-04-10T08:18:34.859Z,99026.16
2023-04-10T08:21:03.222Z,99019.66
2023-04-10T08:23:31.567Z,99019.31
2023-04-10T08:26:00.005Z,99022.41
2023-04-10T08:28:28.159Z,99017.25
2023-04-10T08:30:56.307Z,99012.31
2023-04-10T08:33:24.631Z,99016.81
2023-04-10T08:35:54.018Z,99008.81
2023-04-10T08:38:25.018Z,99010.19
2023-04-10T08:40:53.044Z,98999.00
2023-04-10T08:43:21.488Z,98999.19
2023-04-10T08:45:49.776Z,99005.38
2023-04-10T08:48:19.648Z,99013.31
2023-04-10T08:50:48.399Z,99003.97
2023-04-10T08:53:21.130Z,99014.00
2023-04-10T08:55:49.213Z,99016.25
2023-04-10T08:58:17.286Z,99006.22
2023-04-10T09:00:45.326Z,99005.59
2023-04-10T09:03:15.019Z,99010.09
2023-04-10T09:05:43.334Z,99003.91
2023-04-10T09:08:12.231Z,99003.56
2023-04-10T09:10:41.670Z,99003.97
2023-04-10T09:13:09.738Z,98993.97
2023-04-10T09:16:01.895Z,98993.91
2023-04-10T09:18:44.859Z,98983.81
2023-04-10T09:21:15.480Z,98976.63
2023-04-10T09:23:44.371Z,98967.06
2023-04-10T09:26:27.132Z,98961.63
2023-04-10T09:29:02.114Z,98956.34
2023-04-10T09:31:33.484Z,98945.41
2023-04-10T09:34:16.425Z,98947.38
2023-04-10T09:36:45.431Z,98933.13
2023-04-10T09:39:13.450Z,98945.94
2023-04-10T09:41:52.715Z,98936.72
2023-04-10T09:44:29.915Z,98940.28
2023-04-10T09:46:58.210Z,98927.97
2023-04-10T09:49:26.817Z,98932.59
2023-04-10T09:51:54.821Z,98934.50
2023-04-10T09:54:36.320Z,98918.44
2023-04-10T09:57:07.992Z,98921.44
2023-04-10T09:59:38.664Z,98923.44
2023-04-10T10:02:07.227Z,98909.34
2023-04-10T10:04:36.011Z,98911.41
2023-04-10T10:07:05.133Z,98907.88
2023-04-10T10:09:33.286Z,98899.84
2023-04-10T10:12:03.967Z,98894.91
2023-04-10T10:14:37.160Z,98876.47
2023-04-10T10:17:10.345Z,98881.44
2023-04-10T10:19:42.217Z,98870.91
2023-04-10T10:22:11.679Z,98869.03
2023-04-10T10:24:41.385Z,98865.31
2023-04-10T10:27:10.720Z,98864.50
2023-04-10T10:29:41.104Z,98859.03
2023-04-10T10:32:09.257Z,98857.31
2023-04-10T10:34:37.726Z,98852.75
2023-04-10T10:37:06.759Z,98851.84
2023-04-10T10:39:42.487Z,98847.22
2023-04-10T10:42:23.953Z,98846.81
2023-04-10T10:44:58.303Z,98842.06
2023-04-10T10:47:29.286Z,98841.31
2023-04-10T10:50:00.310Z,98834.03
2023-04-10T10:52:38.144Z,98835.31
2023-04-10T10:55:28.822Z,98827.72
2023-04-10T10:58:00.363Z,98828.97
2023-04-10T11:00:49.821Z,98826.38
2023-04-10T11:03:30.815Z,98824.31
2023-04-10T11:05:59.650Z,98818.03
2023-04-10T11:08:36.691Z,98814.41
2023-04-10T11:11:07.389Z,98815.66
2023-04-10T11:13:36.094Z,98808.84
2023-04-10T11:16:10.370Z,98800.22
2023-04-10T11:21:31.437Z,98810.47
2023-04-10T11:24:03.940Z,98800.81
2023-04-10T11:26:39.490Z,98804.69
2023-04-10T11:29:08.034Z,98797.06
2023-04-10T11:31:39.719Z,98797.28
2023-04-10T11:34:08.917Z,98798.16
2023-04-10T11:36:39.642Z,98793.06
2023-04-10T11:39:09.328Z,98788.28
2023-04-10T11:41:38.978Z,98786.00
2023-04-10T11:44:08.044Z,98782.28
2023-04-10T11:46:37.869Z,98776.78
2023-04-10T11:49:09.672Z,98764.03
2023-04-10T11:51:40.577Z,98753.25
2023-04-10T11:54:09.985Z,98756.53
2023-04-10T11:56:38.457Z,98747.25
2023-04-10T11:59:10.842Z,98735.72
2023-04-10T12:01:41.928Z,98731.22
2023-04-10T12:04:19.590Z,98727.72
2023-04-10T12:06:48.290Z,98732.97
2023-04-10T12:09:19.365Z,98718.88
2023-04-10T12:11:51.913Z,98726.00
2023-04-10T12:14:20.700Z,98717.13
2023-04-10T12:16:49.125Z,98722.22
2023-04-10T12:19:18.684Z,98711.22
2023-04-10T12:21:47.137Z,98703.97
2023-04-10T12:24:32.114Z,98707.06
2023-04-10T12:27:02.717Z,98703.75
2023-04-10T12:29:30.961Z,98694.50
2023-04-10T12:31:58.982Z,98697.16
2023-04-10T12:34:28.418Z,98699.16
2023-04-10T12:36:56.442Z,98694.81
2023-04-10T12:39:25.506Z,98690.69
2023-04-10T12:42:11.428Z,98688.25
2023-04-10T12:44:50.785Z,98675.44
2023-04-10T12:47:18.797Z,98683.19
2023-04-10T12:50:01.737Z,98673.78
2023-04-10T12:52:31.162Z,98670.69
2023-04-10T12:55:08.817Z,98671.94
2023-04-10T12:57:39.133Z,98662.81
2023-04-10T13:00:09.484Z,98665.78
2023-04-10T13:02:37.985Z,98657.13
2023-04-10T13:05:09.076Z,98653.06
2023-04-10T13:07:38.653Z,98649.81
2023-04-10T13:10:07.549Z,98650.59
2023-04-10T13:12:36.406Z,98642.75
2023-04-10T13:15:07.309Z,98645.66
2023-04-10T13:17:35.606Z,98632.56
2023-04-10T13:20:04.617Z,98638.41
2023-04-10T13:22:32.750Z,98647.56
2023-04-10T13:25:03.753Z,98642.59
2023-04-10T13:27:33.902Z,98640.25
2023-04-10T13:30:01.994Z,98636.69
2023-04-10T13:32:30.036Z,98627.34
2023-04-10T13:35:00.400Z,98628.50
2023-04-10T13:37:30.707Z,98623.16
2023-04-10T13:39:58.717Z,98613.72
2023-04-10T13:42:28.117Z,98612.06
2023-04-10T13:44:56.114Z,98608.75
2023-04-10T13:47:24.189Z,98599.31
2023-04-10T13:49:52.273Z,98595.97
2023-04-10T13:52:20.353Z,98596.16
2023-04-10T13:54:48.434Z,98599.56
2023-04-10T13:57:18.845Z,98597.81
2023-04-10T13:59:48.381Z,98589.25
2023-04-10T14:02:16.529Z,98582.94
2023-04-10T14:04:46.145Z,98578.59
2023-04-10T14:07:14.138Z,98577.16
2023-04-10T14:09:42.126Z,98575.69
2023-04-10T14:12:10.702Z,98570.78
2023-04-10T14:14:38.705Z,98565.63
2023-04-10T14:17:08.089Z,98565.06
2023-04-10T14:19:36.156Z,98567.19
2023-04-10T14:22:04.289Z,98568.00
2023-04-10T14:24:32.269Z,98564.16
2023-04-10T14:27:02.507Z,98546.91
2023-04-10T14:29:37.468Z,98556.28
2023-04-10T14:32:08.497Z,98553.91
2023-04-10T14:34:36.633Z,98547.44
2023-04-10T14:37:07.296Z,98554.84
2023-04-10T14:39:35.890Z,98548.53
2023-04-10T14:42:04.053Z,98556.69
2023-04-10T14:44:34.399Z,98550.56
2023-04-10T14:47:06.024Z,98549.53
2023-04-10T14:49:35.616Z,98539.50
2023-04-10T14:52:03.607Z,98537.97
2023-04-10T14:54:31.661Z,98531.03
2023-04-10T14:56:59.662Z,98529.59
2023-04-10T14:59:27.655Z,98528.38
2023-04-10T15:01:55.784Z,98524.81
2023-04-10T15:04:23.868Z,98514.22
2023-04-10T15:06:53.308Z,98518.31
2023-04-10T15:09:23.437Z,98504.34
2023-04-10T15:11:51.462Z,98512.63
2023-04-10T15:14:19.534Z,98508.94
2023-04-10T15:16:48.135Z,98495.75
2023-04-10T15:19:16.231Z,98495.75
2023-04-10T15:21:44.241Z,98494.16
2023-04-10T15:24:13.570Z,98500.31
2023-04-10T15:26:44.294Z,98497.56
2023-04-10T15:29:12.325Z,98487.41
2023-04-10T15:31:40.805Z,98493.13
2023-04-10T15:34:09.085Z,98481.94
2023-04-10T15:36:37.077Z,98465.22
2023-04-10T15:39:05.212Z,98463.72
2023-04-10T15:41:34.661Z,98463.88
2023-04-10T15:44:02.695Z,98457.53
2023-04-10T15:46:32.849Z,98464.38
2023-04-10T15:49:01.665Z,98452.13
2023-04-10T15:51:29.735Z,98456.66
2023-04-10T15:53:57.923Z,98452.66
2023-04-10T15:56:25.918Z,98445.50
2023-04-10T15:58:55.611Z,98445.06
2023-04-10T16:01:26.047Z,98444.97
2023-04-10T16:03:54.712Z,98431.22
2023-04-10T16:06:25.857Z,98436.06
2023-04-10T16:08:53.830Z,98435.03
2023-04-10T16:11:21.940Z,98428.69
2023-04-10T16:13:50.033Z,98432.47
2023-04-10T16:16:19.373Z,98438.69
2023-04-10T16:18:47.486Z,98438.84
2023-04-10T16:21:16.082Z,98433.94
2023-04-10T16:23:44.121Z,98428.88
2023-04-10T16:26:14.585Z,98426.06
2023-04-10T16:28:42.587Z,98412.50
2023-04-10T16:31:10.678Z,98407.94
2023-04-10T16:33:40.088Z,98393.16
2023-04-10T16:36:08.371Z,98388.78
2023-04-10T16:38:36.387Z,98384.09
2023-04-10T16:41:04.616Z,98381.75
2023-04-10T16:43:32.846Z,98388.25
2023-04-10T16:46:00.937Z,98380.38
2023-04-10T16:48:29.016Z,98383.47
2023-04-10T16:51:04.664Z,98372.06
2023-04-10T16:53:36.091Z,98368.28
2023-04-10T16:56:05.146Z,98371.88
2023-04-10T16:58:36.877Z,98375.84
2023-04-10T17:01:13.771Z,98376.34
2023-04-10T17:03:48.929Z,98375.72
2023-04-10T17:06:18.687Z,98369.13
2023-04-10T17:08:46.877Z,98376.31
2023-04-10T17:11:16.045Z,98381.78
2023-04-10T17:13:44.147Z,98386.63
2023-04-10T17:16:12.166Z,98378.78
2023-04-10T17:18:40.326Z,98368.38
2023-04-10T17:21:11.364Z,98363.66
2023-04-10T17:23:41.084Z,98374.81
2023-04-10T17:26:27.203Z,98375.19
2023-04-10T17:28:56.033Z,98364.63
2023-04-10T17:31:28.739Z,98364.84
2023-04-10T17:33:58.216Z,98363.72
2023-04-10T17:36:26.708Z,98362.94
2023-04-10T17:38:56.529Z,98351.75
2023-04-10T17:41:24.703Z,98356.69
2023-04-10T17:43:52.872Z,98351.50
2023-04-10T17:46:20.971Z,98345.50
2023-04-10T17:48:49.049Z,98343.56
2023-04-10T17:51:17.169Z,98337.00
2023-04-10T17:53:46.173Z,98337.00
2023-04-10T17:56:20.813Z,98340.03
2023-04-10T17:58:49.050Z,98339.25
2023-04-10T18:01:22.921Z,98323.66
2023-04-10T18:03:51.134Z,98323.91
2023-04-10T18:06:19.249Z,98310.50
2023-04-10T18:08:47.327Z,98299.38
2023-04-10T18:11:15.309Z,98301.28
2023-04-10T18:13:44.676Z,98283.53
2023-04-10T18:16:12.747Z,98276.72
2023-04-10T18:18:41.880Z,98278.63
2023-04-10T18:21:10.727Z,98290.56
2023-04-10T18:23:39.511Z,98317.25
2023-04-10T18:26:07.802Z,98318.91
2023-04-10T18:28:36.229Z,98326.53
2023-04-10T18:31:06.564Z,98325.47
2023-04-10T18:33:34.917Z,98337.34
2023-04-10T18:36:03.531Z,98337.47
2023-04-10T18:38:31.675Z,98342.09
2023-04-10T18:40:59.691Z,98341.19
2023-04-10T18:43:33.419Z,98340.63
2023-04-10T18:46:01.524Z,98351.31
2023-04-10T18:48:30.971Z,98358.16
2023-04-10T18:51:01.511Z,98368.47
2023-04-10T18:53:29.505Z,98364.56
2023-04-10T18:55:57.653Z,98368.38
2023-04-10T18:58:25.758Z,98364.53
2023-04-10T19:00:54.342Z,98368.41
2023-04-10T19:03:31.626Z,98356.03
2023-04-10T19:06:03.618Z,98361.19
2023-04-10T19:08:31.784Z,98369.00
2023-04-10T19:10:59.816Z,98367.09
2023-04-10T19:13:27.980Z,98357.28
2023-04-10T19:15:56.048Z,98346.66
2023-04-10T19:18:24.122Z,98353.75
2023-04-10T19:20:53.301Z,98341.03
2023-04-10T19:23:26.086Z,98354.38
2023-04-10T19:25:55.058Z,98358.22
2023-04-10T19:28:24.216Z,98365.34
2023-04-10T19:30:52.884Z,98371.53
2023-04-10T19:33:21.112Z,98342.75
2023-04-10T19:35:49.320Z,98377.84
2023-04-10T19:38:17.421Z,98382.16
2023-04-10T19:40:47.204Z,98382.94
2023-04-10T19:43:15.313Z,98374.72
2023-04-10T19:45:48.599Z,98373.09
2023-04-10T19:48:16.797Z,98375.81
2023-04-10T19:50:44.853Z,98379.88
2023-04-10T19:53:15.705Z,98373.06
2023-04-10T19:55:48.298Z,98368.31
2023-04-10T19:58:35.663Z,98368.31
2023-04-10T20:01:04.791Z,98370.16
2023-04-10T20:03:33.159Z,98358.50
2023-04-10T20:06:01.669Z,98343.56
2023-04-10T20:08:29.824Z,98343.78
2023-04-10T20:10:59.434Z,98335.28
2023-04-10T20:13:27.533Z,98343.94
2023-04-10T20:15:55.625Z,98344.66
2023-04-10T20:18:23.774Z,98340.09
2023-04-10T20:20:51.863Z,98337.75
2023-04-10T20:23:19.932Z,98328.44
2023-04-10T20:25:47.961Z,98331.84
2023-04-10T20:28:19.865Z,98330.19
2023-04-10T20:30:47.870Z,98326.22
2023-04-10T20:33:15.876Z,98316.50
2023-04-10T20:35:43.973Z,98320.84
2023-04-10T20:38:14.503Z,98321.84
2023-04-10T20:40:42.588Z,98328.66
2023-04-10T20:43:12.309Z,98325.09
2023-04-10T20:45:42.096Z,98317.81
2023-04-10T20:48:10.410Z,98314.34
2023-04-10T20:50:42.727Z,98318.09
2023-04-10T20:53:12.488Z,98314.22
2023-04-10T20:55:40.854Z,98301.06
2023-04-10T20:58:11.034Z,98302.69
2023-04-10T21:00:39.705Z,98298.56
2023-04-10T21:03:09.477Z,98299.25
2023-04-10T21:05:39.727Z,98275.38
2023-04-10T21:08:07.781Z,98270.81
2023-04-10T21:10:37.312Z,98276.06
2023-04-10T21:13:05.396Z,98277.56
2023-04-10T21:15:35.853Z,98292.69
2023-04-10T21:18:04.145Z,98293.34
2023-04-10T21:20:35.088Z,98294.03
2023-04-10T21:23:03.408Z,98280.22
2023-04-10T21:25:32.413Z,98259.53
2023-04-10T21:28:01.720Z,98277.09
2023-04-10T21:30:31.886Z,98286.69
2023-04-10T21:33:00.150Z,98284.09
2023-04-10T21:35:30.460Z,98279.69
2023-04-10T21:38:01.976Z,98272.91
2023-04-10T21:40:33.912Z,98281.09
2023-04-10T21:43:02.038Z,98286.78
2023-04-10T21:45:30.036Z,98278.72
2023-04-10T21:47:59.868Z,98279.47
2023-04-10T21:50:27.937Z,98276.13
2023-04-10T21:52:56.035Z,98261.06
2023-04-10T21:55:25.454Z,98257.97
2023-04-10T21:57:53.488Z,98250.75
2023-04-10T22:02:38.254Z,98230.28
2023-04-10T22:05:06.934Z,98224.13
2023-04-10T22:07:35.016Z,98219.75
2023-04-10T22:10:03.066Z,98222.59
2023-04-10T22:12:31.129Z,98222.25
2023-04-10T22:14:59.183Z,98212.25
2023-04-10T22:17:27.254Z,98195.22
2023-04-10T22:19:56.637Z,98204.03
2023-04-10T22:22:24.678Z,98193.06
2023-04-10T22:24:54.727Z,98176.81
2023-04-10T22:27:23.982Z,98164.56
2023-04-10T22:30:02.135Z,98137.59
2023-04-10T22:32:31.844Z,98138.78
2023-04-10T22:35:01.501Z,98140.28
2023-04-10T22:37:29.497Z,98149.00
2023-04-10T22:39:57.575Z,98133.78
2023-04-10T22:42:25.659Z,98120.09
2023-04-10T22:44:53.735Z,98113.91
2023-04-10T22:47:21.801Z,98101.44
2023-04-10T22:49:52.346Z,98111.78
2023-04-10T22:52:21.763Z,98118.88
2023-04-10T22:54:49.794Z,98107.69
2023-04-10T22:57:17.874Z,98105.31
2023-04-10T22:59:45.917Z,98114.00
2023-04-10T23:02:14.069Z,98134.38
2023-04-10T23:04:42.209Z,98155.69
2023-04-10T23:07:10.397Z,98153.44
2023-04-10T23:09:39.776Z,98145.91
2023-04-10T23:12:08.114Z,98125.13
2023-04-10T23:14:36.576Z,98111.84
2023-04-10T23:17:04.617Z,98115.97
2023-04-10T23:19:35.036Z,98114.56
2023-04-10T23:22:03.033Z,98120.31
2023-04-10T23:24:31.076Z,98145.66
2023-04-10T23:27:00.543Z,98140.22
2023-04-10T23:29:28.717Z,98141.03
2023-04-10T23:31:56.714Z,98138.81
2023-04-10T23:34:26.548Z,98126.56
2023-04-10T23:36:54.655Z,98122.75
2023-04-10T23:39:22.968Z,98131.94
2023-04-10T23:41:53.514Z,98119.03
2023-04-10T23:44:23.070Z,98128.69
2023-04-10T23:46:51.509Z,98123.69
2023-04-10T23:49:19.687Z,98127.66
2023-04-10T23:51:50.193Z,98128.06
2023-04-10T23:54:18.277Z,98129.47
2023-04-10T23:56:46.300Z,98110.75
2023-04-10T23:59:16.907Z,98097.47
